VER weather

General Heriberto Jara International Airport
Veracruz, Veracruz, Mexico

Public forecast

Using degrees Celsius for public forecast. Weather courtesy of forecast.io.

Current aviation weather report (METAR) for General Heriberto Jara International Airport

Retrieved 2019/10/20 23:43 UTC (0 seconds ago):

MMVR 202343Z 15002KT 7SM BKN200 29/26 A2972 RMK SLP050 52008 906 8/008 HZY DSNT TCU W

Aviation forecast (TAF) for General Heriberto Jara International Airport

Retrieved 2019/10/20 18:00 UTC (6 hours ago):

TAF MMVR 201656Z 2018/2118 12010KT 6SM HZ BKN015 BKN250 TX31/2019Z TN25/2111Z FM210300 16005KT 5SM HZ SCT010 BKN020 BECMG 2109/2110 2SM -DZ BR BKN006 OVC010 FM211500 13006KT 4SM HZ BKN010 OVC020